sensor_id;sensor_type;location;lat;lon;timestamp;P1;durP1;ratioP1;P2;durP2;ratioP2
10509;SDS011;5303;53.266;10.410;2023-07-09T00:02:16;4.60;;;3.60;;
10509;SDS011;5303;53.266;10.410;2023-07-09T00:04:42;6.20;;;3.50;;
10509;SDS011;5303;53.266;10.410;2023-07-09T00:07:11;4.47;;;4.00;;
10509;SDS011;5303;53.266;10.410;2023-07-09T00:09:42;3.70;;;3.40;;
10509;SDS011;5303;53.266;10.410;2023-07-09T00:12:11;6.90;;;4.23;;
10509;SDS011;5303;53.266;10.410;2023-07-09T00:14:38;4.20;;;3.87;;
10509;SDS011;5303;53.266;10.410;2023-07-09T00:17:07;4.60;;;3.50;;
10509;SDS011;5303;53.266;10.410;2023-07-09T00:19:36;4.23;;;3.53;;
10509;SDS011;5303;53.266;10.410;2023-07-09T00:22:01;3.93;;;3.53;;
10509;SDS011;5303;53.266;10.410;2023-07-09T00:24:26;6.10;;;3.90;;
10509;SDS011;5303;53.266;10.410;2023-07-09T00:26:52;4.83;;;3.90;;
10509;SDS011;5303;53.266;10.410;2023-07-09T00:29:17;4.17;;;3.37;;
10509;SDS011;5303;53.266;10.410;2023-07-09T00:31:43;5.10;;;4.03;;
10509;SDS011;5303;53.266;10.410;2023-07-09T00:34:09;4.37;;;3.70;;
10509;SDS011;5303;53.266;10.410;2023-07-09T00:36:38;4.23;;;3.60;;
10509;SDS011;5303;53.266;10.410;2023-07-09T00:39:08;5.77;;;3.80;;
10509;SDS011;5303;53.266;10.410;2023-07-09T00:41:40;4.57;;;4.10;;
10509;SDS011;5303;53.266;10.410;2023-07-09T00:49:38;5.17;;;3.80;;
10509;SDS011;5303;53.266;10.410;2023-07-09T00:54:47;4.00;;;3.40;;
10509;SDS011;5303;53.266;10.410;2023-07-09T00:57:16;4.47;;;3.50;;
10509;SDS011;5303;53.266;10.410;2023-07-09T00:59:49;4.67;;;3.63;;
10509;SDS011;5303;53.266;10.410;2023-07-09T01:02:24;4.43;;;3.90;;
10509;SDS011;5303;53.266;10.410;2023-07-09T01:04:51;4.30;;;3.83;;
10509;SDS011;5303;53.266;10.410;2023-07-09T01:07:20;4.10;;;3.70;;
10509;SDS011;5303;53.266;10.410;2023-07-09T01:09:46;5.13;;;3.30;;
10509;SDS011;5303;53.266;10.410;2023-07-09T01:12:12;3.87;;;3.47;;
10509;SDS011;5303;53.266;10.410;2023-07-09T01:14:39;4.90;;;4.23;;
10509;SDS011;5303;53.266;10.410;2023-07-09T01:17:05;4.20;;;3.53;;
10509;SDS011;5303;53.266;10.410;2023-07-09T01:19:40;4.33;;;3.60;;
10509;SDS011;5303;53.266;10.410;2023-07-09T01:22:12;4.57;;;3.60;;
10509;SDS011;5303;53.266;10.410;2023-07-09T01:27:34;5.10;;;4.37;;
10509;SDS011;5303;53.266;10.410;2023-07-09T01:30:09;4.43;;;3.60;;
10509;SDS011;5303;53.266;10.410;2023-07-09T01:32:37;4.23;;;3.83;;
10509;SDS011;5303;53.266;10.410;2023-07-09T01:35:04;5.40;;;4.27;;
10509;SDS011;5303;53.266;10.410;2023-07-09T01:37:32;4.53;;;3.97;;
10509;SDS011;5303;53.266;10.410;2023-07-09T01:39:59;5.00;;;4.20;;
10509;SDS011;5303;53.266;10.410;2023-07-09T01:42:25;4.87;;;3.83;;
10509;SDS011;5303;53.266;10.410;2023-07-09T01:44:53;5.77;;;4.07;;
10509;SDS011;5303;53.266;10.410;2023-07-09T01:47:20;4.37;;;3.97;;
10509;SDS011;5303;53.266;10.410;2023-07-09T01:49:47;5.20;;;4.30;;
10509;SDS011;5303;53.266;10.410;2023-07-09T01:52:12;5.63;;;4.10;;
10509;SDS011;5303;53.266;10.410;2023-07-09T01:54:41;4.47;;;3.90;;
10509;SDS011;5303;53.266;10.410;2023-07-09T01:57:16;4.93;;;4.03;;
10509;SDS011;5303;53.266;10.410;2023-07-09T01:59:44;5.10;;;4.30;;
10509;SDS011;5303;53.266;10.410;2023-07-09T02:02:10;4.33;;;3.67;;
10509;SDS011;5303;53.266;10.410;2023-07-09T02:04:47;6.30;;;4.17;;
10509;SDS011;5303;53.266;10.410;2023-07-09T02:07:17;4.00;;;3.53;;
10509;SDS011;5303;53.266;10.410;2023-07-09T02:09:43;3.97;;;3.67;;
10509;SDS011;5303;53.266;10.410;2023-07-09T02:12:09;4.33;;;3.80;;
10509;SDS011;5303;53.266;10.410;2023-07-09T02:14:36;4.73;;;3.90;;
10509;SDS011;5303;53.266;10.410;2023-07-09T02:17:02;3.80;;;3.40;;
10509;SDS011;5303;53.266;10.410;2023-07-09T02:19:28;4.63;;;3.80;;
10509;SDS011;5303;53.266;10.410;2023-07-09T02:21:54;4.90;;;4.00;;
10509;SDS011;5303;53.266;10.410;2023-07-09T02:24:19;4.40;;;3.40;;
10509;SDS011;5303;53.266;10.410;2023-07-09T02:26:45;5.90;;;3.80;;
10509;SDS011;5303;53.266;10.410;2023-07-09T02:29:10;7.20;;;3.93;;
10509;SDS011;5303;53.266;10.410;2023-07-09T02:31:35;4.00;;;3.60;;
10509;SDS011;5303;53.266;10.410;2023-07-09T02:34:01;5.17;;;3.50;;
10509;SDS011;5303;53.266;10.410;2023-07-09T02:36:28;4.97;;;3.90;;
10509;SDS011;5303;53.266;10.410;2023-07-09T02:38:53;4.33;;;3.83;;
10509;SDS011;5303;53.266;10.410;2023-07-09T02:41:18;5.10;;;4.43;;
10509;SDS011;5303;53.266;10.410;2023-07-09T02:43:44;5.77;;;4.60;;
10509;SDS011;5303;53.266;10.410;2023-07-09T02:46:09;4.67;;;4.10;;
10509;SDS011;5303;53.266;10.410;2023-07-09T02:48:34;4.23;;;3.83;;
10509;SDS011;5303;53.266;10.410;2023-07-09T02:50:59;6.10;;;3.97;;
10509;SDS011;5303;53.266;10.410;2023-07-09T02:53:25;5.03;;;3.90;;
10509;SDS011;5303;53.266;10.410;2023-07-09T02:55:52;5.17;;;3.90;;
10509;SDS011;5303;53.266;10.410;2023-07-09T02:58:17;6.10;;;3.60;;
10509;SDS011;5303;53.266;10.410;2023-07-09T03:00:42;7.90;;;4.20;;
10509;SDS011;5303;53.266;10.410;2023-07-09T03:03:07;4.90;;;4.00;;
10509;SDS011;5303;53.266;10.410;2023-07-09T03:05:33;5.83;;;4.03;;
10509;SDS011;5303;53.266;10.410;2023-07-09T03:07:58;7.63;;;4.10;;
10509;SDS011;5303;53.266;10.410;2023-07-09T03:10:24;5.33;;;3.93;;
10509;SDS011;5303;53.266;10.410;2023-07-09T03:12:49;4.73;;;4.20;;
10509;SDS011;5303;53.266;10.410;2023-07-09T03:15:14;4.80;;;4.03;;
10509;SDS011;5303;53.266;10.410;2023-07-09T03:17:39;4.97;;;3.77;;
10509;SDS011;5303;53.266;10.410;2023-07-09T03:20:05;4.00;;;3.60;;
10509;SDS011;5303;53.266;10.410;2023-07-09T03:22:32;5.23;;;4.07;;
10509;SDS011;5303;53.266;10.410;2023-07-09T03:24:58;4.90;;;3.90;;
10509;SDS011;5303;53.266;10.410;2023-07-09T03:27:23;4.90;;;4.40;;
10509;SDS011;5303;53.266;10.410;2023-07-09T03:29:48;4.57;;;4.17;;
10509;SDS011;5303;53.266;10.410;2023-07-09T03:32:13;7.13;;;4.30;;
10509;SDS011;5303;53.266;10.410;2023-07-09T03:34:39;4.83;;;4.33;;
10509;SDS011;5303;53.266;10.410;2023-07-09T03:37:04;4.80;;;4.37;;
10509;SDS011;5303;53.266;10.410;2023-07-09T03:39:29;5.83;;;4.33;;
10509;SDS011;5303;53.266;10.410;2023-07-09T03:41:55;4.57;;;4.17;;
10509;SDS011;5303;53.266;10.410;2023-07-09T03:44:20;4.30;;;3.90;;
10509;SDS011;5303;53.266;10.410;2023-07-09T03:46:45;4.23;;;3.83;;
10509;SDS011;5303;53.266;10.410;2023-07-09T03:49:11;5.43;;;3.73;;
10509;SDS011;5303;53.266;10.410;2023-07-09T03:51:36;4.77;;;4.27;;
10509;SDS011;5303;53.266;10.410;2023-07-09T03:54:01;5.27;;;4.30;;
10509;SDS011;5303;53.266;10.410;2023-07-09T03:56:27;4.80;;;4.07;;
10509;SDS011;5303;53.266;10.410;2023-07-09T03:58:52;4.43;;;4.00;;
10509;SDS011;5303;53.266;10.410;2023-07-09T04:01:18;5.03;;;4.23;;
10509;SDS011;5303;53.266;10.410;2023-07-09T04:03:43;5.90;;;4.20;;
10509;SDS011;5303;53.266;10.410;2023-07-09T04:06:08;6.00;;;4.23;;
10509;SDS011;5303;53.266;10.410;2023-07-09T04:08:33;4.30;;;3.93;;
10509;SDS011;5303;53.266;10.410;2023-07-09T04:10:59;4.73;;;3.93;;
10509;SDS011;5303;53.266;10.410;2023-07-09T04:13:26;4.57;;;3.93;;
10509;SDS011;5303;53.266;10.410;2023-07-09T04:15:53;6.80;;;4.77;;
10509;SDS011;5303;53.266;10.410;2023-07-09T04:18:18;6.10;;;4.30;;
10509;SDS011;5303;53.266;10.410;2023-07-09T04:20:44;4.40;;;4.00;;
10509;SDS011;5303;53.266;10.410;2023-07-09T04:23:13;5.53;;;4.30;;
10509;SDS011;5303;53.266;10.410;2023-07-09T04:25:38;5.20;;;4.30;;
10509;SDS011;5303;53.266;10.410;2023-07-09T04:28:04;4.20;;;3.80;;
10509;SDS011;5303;53.266;10.410;2023-07-09T04:30:30;7.00;;;3.97;;
10509;SDS011;5303;53.266;10.410;2023-07-09T04:32:56;5.03;;;3.97;;
10509;SDS011;5303;53.266;10.410;2023-07-09T04:35:22;4.47;;;4.03;;
10509;SDS011;5303;53.266;10.410;2023-07-09T04:37:47;5.83;;;3.87;;
10509;SDS011;5303;53.266;10.410;2023-07-09T04:40:13;4.73;;;4.23;;
10509;SDS011;5303;53.266;10.410;2023-07-09T04:42:38;5.07;;;4.37;;
10509;SDS011;5303;53.266;10.410;2023-07-09T04:45:05;5.33;;;4.30;;
10509;SDS011;5303;53.266;10.410;2023-07-09T04:47:31;5.17;;;4.13;;
10509;SDS011;5303;53.266;10.410;2023-07-09T04:49:56;5.13;;;4.27;;
10509;SDS011;5303;53.266;10.410;2023-07-09T04:52:21;6.20;;;4.53;;
10509;SDS011;5303;53.266;10.410;2023-07-09T04:54:47;6.20;;;4.00;;
10509;SDS011;5303;53.266;10.410;2023-07-09T04:57:14;4.57;;;3.93;;
10509;SDS011;5303;53.266;10.410;2023-07-09T04:59:40;4.30;;;3.70;;
10509;SDS011;5303;53.266;10.410;2023-07-09T05:02:06;5.10;;;4.40;;
10509;SDS011;5303;53.266;10.410;2023-07-09T05:04:31;5.23;;;4.03;;
10509;SDS011;5303;53.266;10.410;2023-07-09T05:06:57;4.27;;;3.73;;
10509;SDS011;5303;53.266;10.410;2023-07-09T05:09:23;4.65;;;3.47;;
10509;SDS011;5303;53.266;10.410;2023-07-09T05:11:48;5.72;;;4.00;;
10509;SDS011;5303;53.266;10.410;2023-07-09T05:14:14;6.78;;;3.70;;
10509;SDS011;5303;53.266;10.410;2023-07-09T05:16:39;4.72;;;3.80;;
10509;SDS011;5303;53.266;10.410;2023-07-09T05:19:06;4.63;;;3.47;;
10509;SDS011;5303;53.266;10.410;2023-07-09T05:21:32;4.57;;;3.33;;
10509;SDS011;5303;53.266;10.410;2023-07-09T05:23:57;6.13;;;3.70;;
10509;SDS011;5303;53.266;10.410;2023-07-09T05:26:23;3.53;;;3.22;;
10509;SDS011;5303;53.266;10.410;2023-07-09T05:28:48;4.05;;;3.35;;
10509;SDS011;5303;53.266;10.410;2023-07-09T05:31:13;6.53;;;4.20;;
10509;SDS011;5303;53.266;10.410;2023-07-09T05:33:39;3.78;;;3.47;;
10509;SDS011;5303;53.266;10.410;2023-07-09T05:36:04;6.03;;;4.30;;
10509;SDS011;5303;53.266;10.410;2023-07-09T05:38:29;4.18;;;3.50;;
10509;SDS011;5303;53.266;10.410;2023-07-09T05:41:01;4.72;;;3.38;;
10509;SDS011;5303;53.266;10.410;2023-07-09T05:43:28;3.65;;;3.35;;
10509;SDS011;5303;53.266;10.410;2023-07-09T05:45:54;7.32;;;3.83;;
10509;SDS011;5303;53.266;10.410;2023-07-09T05:48:19;4.57;;;3.88;;
10509;SDS011;5303;53.266;10.410;2023-07-09T05:50:45;4.70;;;3.65;;
10509;SDS011;5303;53.266;10.410;2023-07-09T05:53:10;4.30;;;3.50;;
10509;SDS011;5303;53.266;10.410;2023-07-09T05:55:35;4.40;;;4.00;;
10509;SDS011;5303;53.266;10.410;2023-07-09T05:58:00;4.70;;;3.75;;
10509;SDS011;5303;53.266;10.410;2023-07-09T06:00:26;4.32;;;3.92;;
10509;SDS011;5303;53.266;10.410;2023-07-09T06:02:51;4.05;;;3.60;;
10509;SDS011;5303;53.266;10.410;2023-07-09T06:05:16;5.75;;;3.78;;
10509;SDS011;5303;53.266;10.410;2023-07-09T06:07:42;11.93;;;4.47;;
10509;SDS011;5303;53.266;10.410;2023-07-09T06:10:07;4.43;;;3.65;;
10509;SDS011;5303;53.266;10.410;2023-07-09T06:12:34;4.57;;;3.60;;
10509;SDS011;5303;53.266;10.410;2023-07-09T06:15:00;4.32;;;3.80;;
10509;SDS011;5303;53.266;10.410;2023-07-09T06:17:25;6.80;;;4.03;;
10509;SDS011;5303;53.266;10.410;2023-07-09T06:19:50;5.07;;;3.85;;
10509;SDS011;5303;53.266;10.410;2023-07-09T06:22:16;4.65;;;3.78;;
10509;SDS011;5303;53.266;10.410;2023-07-09T06:24:41;4.35;;;3.83;;
10509;SDS011;5303;53.266;10.410;2023-07-09T06:27:08;5.18;;;3.92;;
10509;SDS011;5303;53.266;10.410;2023-07-09T06:29:34;4.95;;;4.00;;
10509;SDS011;5303;53.266;10.410;2023-07-09T06:32:00;3.95;;;3.55;;
10509;SDS011;5303;53.266;10.410;2023-07-09T06:34:25;5.60;;;4.00;;
10509;SDS011;5303;53.266;10.410;2023-07-09T06:36:50;4.88;;;4.07;;
10509;SDS011;5303;53.266;10.410;2023-07-09T06:39:17;5.68;;;3.80;;
10509;SDS011;5303;53.266;10.410;2023-07-09T06:41:44;4.15;;;3.75;;
10509;SDS011;5303;53.266;10.410;2023-07-09T06:44:09;4.90;;;4.00;;
10509;SDS011;5303;53.266;10.410;2023-07-09T06:46:35;5.00;;;4.50;;
10509;SDS011;5303;53.266;10.410;2023-07-09T06:49:01;4.20;;;3.80;;
10509;SDS011;5303;53.266;10.410;2023-07-09T06:51:27;5.93;;;3.90;;
10509;SDS011;5303;53.266;10.410;2023-07-09T06:53:53;5.13;;;3.83;;
10509;SDS011;5303;53.266;10.410;2023-07-09T06:56:18;5.18;;;4.03;;
10509;SDS011;5303;53.266;10.410;2023-07-09T06:58:43;4.47;;;3.88;;
10509;SDS011;5303;53.266;10.410;2023-07-09T07:01:11;5.45;;;4.07;;
10509;SDS011;5303;53.266;10.410;2023-07-09T07:03:37;5.07;;;3.88;;
10509;SDS011;5303;53.266;10.410;2023-07-09T07:06:02;4.50;;;4.07;;
10509;SDS011;5303;53.266;10.410;2023-07-09T07:08:28;5.78;;;3.85;;
10509;SDS011;5303;53.266;10.410;2023-07-09T07:10:58;5.95;;;3.97;;
10509;SDS011;5303;53.266;10.410;2023-07-09T07:13:28;6.25;;;4.13;;
10509;SDS011;5303;53.266;10.410;2023-07-09T07:15:54;5.45;;;4.32;;
10509;SDS011;5303;53.266;10.410;2023-07-09T07:18:19;4.50;;;4.10;;
10509;SDS011;5303;53.266;10.410;2023-07-09T07:20:46;4.90;;;4.13;;
10509;SDS011;5303;53.266;10.410;2023-07-09T07:23:11;4.47;;;3.80;;
10509;SDS011;5303;53.266;10.410;2023-07-09T07:25:38;4.47;;;4.07;;
10509;SDS011;5303;53.266;10.410;2023-07-09T07:28:03;7.32;;;4.65;;
10509;SDS011;5303;53.266;10.410;2023-07-09T07:30:29;4.53;;;4.05;;
10509;SDS011;5303;53.266;10.410;2023-07-09T07:32:54;5.15;;;4.40;;
10509;SDS011;5303;53.266;10.410;2023-07-09T07:35:19;4.35;;;3.95;;
10509;SDS011;5303;53.266;10.410;2023-07-09T07:37:45;5.03;;;4.53;;
10509;SDS011;5303;53.266;10.410;2023-07-09T07:40:10;4.82;;;4.32;;
10509;SDS011;5303;53.266;10.410;2023-07-09T07:42:36;5.25;;;4.30;;
10509;SDS011;5303;53.266;10.410;2023-07-09T07:45:01;6.10;;;3.83;;
10509;SDS011;5303;53.266;10.410;2023-07-09T07:47:28;5.53;;;4.10;;
10509;SDS011;5303;53.266;10.410;2023-07-09T07:49:55;4.43;;;4.03;;
10509;SDS011;5303;53.266;10.410;2023-07-09T07:52:21;4.78;;;4.20;;
10509;SDS011;5303;53.266;10.410;2023-07-09T07:54:47;5.13;;;4.13;;
10509;SDS011;5303;53.266;10.410;2023-07-09T07:57:12;4.68;;;4.28;;
10509;SDS011;5303;53.266;10.410;2023-07-09T07:59:38;4.85;;;4.18;;
10509;SDS011;5303;53.266;10.410;2023-07-09T08:02:04;6.18;;;4.60;;
10509;SDS011;5303;53.266;10.410;2023-07-09T08:04:31;5.65;;;4.30;;
10509;SDS011;5303;53.266;10.410;2023-07-09T08:06:56;4.35;;;3.97;;
10509;SDS011;5303;53.266;10.410;2023-07-09T08:09:21;4.47;;;4.03;;
10509;SDS011;5303;53.266;10.410;2023-07-09T08:11:47;5.00;;;4.38;;
10509;SDS011;5303;53.266;10.410;2023-07-09T08:14:14;5.43;;;4.28;;
10509;SDS011;5303;53.266;10.410;2023-07-09T08:16:40;5.10;;;4.40;;
10509;SDS011;5303;53.266;10.410;2023-07-09T08:19:06;4.85;;;4.30;;
10509;SDS011;5303;53.266;10.410;2023-07-09T08:21:31;6.90;;;4.80;;
10509;SDS011;5303;53.266;10.410;2023-07-09T08:23:56;5.75;;;5.13;;
10509;SDS011;5303;53.266;10.410;2023-07-09T08:26:21;4.55;;;4.15;;
10509;SDS011;5303;53.266;10.410;2023-07-09T08:28:49;5.57;;;4.47;;
10509;SDS011;5303;53.266;10.410;2023-07-09T08:31:14;7.03;;;5.25;;
10509;SDS011;5303;53.266;10.410;2023-07-09T08:33:39;5.05;;;4.30;;
10509;SDS011;5303;53.266;10.410;2023-07-09T08:36:05;6.40;;;4.35;;
10509;SDS011;5303;53.266;10.410;2023-07-09T08:38:30;5.40;;;4.38;;
10509;SDS011;5303;53.266;10.410;2023-07-09T08:48:49;5.10;;;4.57;;
10509;SDS011;5303;53.266;10.410;2023-07-09T08:54:01;4.53;;;4.13;;
10509;SDS011;5303;53.266;10.410;2023-07-09T08:56:27;9.85;;;4.53;;
10509;SDS011;5303;53.266;10.410;2023-07-09T08:58:58;6.03;;;4.25;;
10509;SDS011;5303;53.266;10.410;2023-07-09T09:01:28;6.35;;;4.65;;
10509;SDS011;5303;53.266;10.410;2023-07-09T09:03:59;5.38;;;4.88;;
10509;SDS011;5303;53.266;10.410;2023-07-09T09:06:29;5.22;;;4.10;;
10509;SDS011;5303;53.266;10.410;2023-07-09T09:13:55;4.57;;;4.18;;
10509;SDS011;5303;53.266;10.410;2023-07-09T09:16:27;6.55;;;4.80;;
10509;SDS011;5303;53.266;10.410;2023-07-09T09:18:55;4.80;;;4.30;;
10509;SDS011;5303;53.266;10.410;2023-07-09T09:21:28;5.70;;;4.30;;
10509;SDS011;5303;53.266;10.410;2023-07-09T09:23:57;5.85;;;4.95;;
10509;SDS011;5303;53.266;10.410;2023-07-09T09:26:26;6.15;;;4.90;;
10509;SDS011;5303;53.266;10.410;2023-07-09T09:28:56;4.60;;;4.20;;
10509;SDS011;5303;53.266;10.410;2023-07-09T09:31:21;5.97;;;5.38;;
10509;SDS011;5303;53.266;10.410;2023-07-09T09:33:47;7.60;;;5.45;;
10509;SDS011;5303;53.266;10.410;2023-07-09T09:36:15;6.03;;;4.97;;
10509;SDS011;5303;53.266;10.410;2023-07-09T09:38:45;6.15;;;5.00;;
10509;SDS011;5303;53.266;10.410;2023-07-09T09:41:14;5.05;;;4.65;;
10509;SDS011;5303;53.266;10.410;2023-07-09T09:43:45;6.38;;;5.18;;
10509;SDS011;5303;53.266;10.410;2023-07-09T09:46:22;6.10;;;5.05;;
10509;SDS011;5303;53.266;10.410;2023-07-09T09:48:50;5.88;;;4.72;;
10509;SDS011;5303;53.266;10.410;2023-07-09T09:51:18;6.60;;;4.90;;
10509;SDS011;5303;53.266;10.410;2023-07-09T09:53:45;5.70;;;5.10;;
10509;SDS011;5303;53.266;10.410;2023-07-09T09:56:14;5.40;;;4.97;;
10509;SDS011;5303;53.266;10.410;2023-07-09T09:58:44;6.93;;;4.82;;
10509;SDS011;5303;53.266;10.410;2023-07-09T10:01:17;7.57;;;4.93;;
10509;SDS011;5303;53.266;10.410;2023-07-09T10:03:43;7.65;;;5.93;;
10509;SDS011;5303;53.266;10.410;2023-07-09T10:06:15;4.80;;;4.30;;
10509;SDS011;5303;53.266;10.410;2023-07-09T10:08:46;5.75;;;5.00;;
10509;SDS011;5303;53.266;10.410;2023-07-09T10:14:20;6.72;;;4.57;;
10509;SDS011;5303;53.266;10.410;2023-07-09T10:16:48;5.00;;;4.50;;
10509;SDS011;5303;53.266;10.410;2023-07-09T10:22:12;6.18;;;4.80;;
10509;SDS011;5303;53.266;10.410;2023-07-09T10:25:48;5.95;;;5.35;;
10509;SDS011;5303;53.266;10.410;2023-07-09T10:28:06;5.57;;;4.90;;
10509;SDS011;5303;53.266;10.410;2023-07-09T10:36:36;5.68;;;5.10;;
10509;SDS011;5303;53.266;10.410;2023-07-09T10:39:07;6.03;;;5.43;;
10509;SDS011;5303;53.266;10.410;2023-07-09T10:41:38;5.90;;;5.30;;
10509;SDS011;5303;53.266;10.410;2023-07-09T10:44:11;5.32;;;4.72;;
10509;SDS011;5303;53.266;10.410;2023-07-09T10:46:40;5.65;;;5.10;;
10509;SDS011;5303;53.266;10.410;2023-07-09T10:49:11;6.95;;;5.63;;
10509;SDS011;5303;53.266;10.410;2023-07-09T10:51:39;6.00;;;5.32;;
10509;SDS011;5303;53.266;10.410;2023-07-09T10:56:51;6.05;;;4.57;;
10509;SDS011;5303;53.266;10.410;2023-07-09T10:59:26;8.45;;;5.30;;
10509;SDS011;5303;53.266;10.410;2023-07-09T11:02:08;7.03;;;5.72;;
10509;SDS011;5303;53.266;10.410;2023-07-09T11:04:53;8.50;;;6.43;;
10509;SDS011;5303;53.266;10.410;2023-07-09T11:08:08;8.50;;;7.63;;
10509;SDS011;5303;53.266;10.410;2023-07-09T11:10:27;5.65;;;4.75;;
10509;SDS011;5303;53.266;10.410;2023-07-09T11:13:04;5.82;;;4.82;;
10509;SDS011;5303;53.266;10.410;2023-07-09T11:15:36;6.10;;;5.50;;
10509;SDS011;5303;53.266;10.410;2023-07-09T11:18:05;5.07;;;4.55;;
10509;SDS011;5303;53.266;10.410;2023-07-09T11:20:36;5.00;;;4.40;;
10509;SDS011;5303;53.266;10.410;2023-07-09T11:23:16;5.47;;;4.45;;
10509;SDS011;5303;53.266;10.410;2023-07-09T11:25:44;5.93;;;4.50;;
10509;SDS011;5303;53.266;10.410;2023-07-09T11:28:11;7.13;;;4.85;;
10509;SDS011;5303;53.266;10.410;2023-07-09T11:30:47;5.55;;;4.80;;
10509;SDS011;5303;53.266;10.410;2023-07-09T11:33:18;6.35;;;4.80;;
10509;SDS011;5303;53.266;10.410;2023-07-09T11:35:46;5.82;;;4.72;;
10509;SDS011;5303;53.266;10.410;2023-07-09T11:38:17;5.47;;;4.90;;
10509;SDS011;5303;53.266;10.410;2023-07-09T11:40:46;7.63;;;4.38;;
10509;SDS011;5303;53.266;10.410;2023-07-09T11:43:25;7.00;;;4.78;;
10509;SDS011;5303;53.266;10.410;2023-07-09T11:45:57;7.03;;;5.18;;
10509;SDS011;5303;53.266;10.410;2023-07-09T11:48:31;5.75;;;5.10;;
10509;SDS011;5303;53.266;10.410;2023-07-09T11:51:02;5.93;;;5.25;;
10509;SDS011;5303;53.266;10.410;2023-07-09T11:53:46;6.18;;;5.57;;
10509;SDS011;5303;53.266;10.410;2023-07-09T11:56:22;5.72;;;5.07;;
10509;SDS011;5303;53.266;10.410;2023-07-09T11:58:53;6.75;;;5.05;;
10509;SDS011;5303;53.266;10.410;2023-07-09T12:01:27;5.90;;;5.30;;
10509;SDS011;5303;53.266;10.410;2023-07-09T12:04:00;6.30;;;5.70;;
10509;SDS011;5303;53.266;10.410;2023-07-09T12:06:29;6.82;;;4.93;;
10509;SDS011;5303;53.266;10.410;2023-07-09T12:08:57;6.68;;;4.90;;
10509;SDS011;5303;53.266;10.410;2023-07-09T12:11:24;7.53;;;4.40;;
10509;SDS011;5303;53.266;10.410;2023-07-09T12:14:10;5.57;;;4.95;;
10509;SDS011;5303;53.266;10.410;2023-07-09T12:16:38;5.97;;;4.47;;
10509;SDS011;5303;53.266;10.410;2023-07-09T12:19:05;5.32;;;4.65;;
10509;SDS011;5303;53.266;10.410;2023-07-09T12:21:33;4.95;;;4.40;;
10509;SDS011;5303;53.266;10.410;2023-07-09T12:24:03;5.78;;;4.80;;
10509;SDS011;5303;53.266;10.410;2023-07-09T12:26:42;5.05;;;4.60;;
10509;SDS011;5303;53.266;10.410;2023-07-09T12:29:12;6.45;;;4.97;;
10509;SDS011;5303;53.266;10.410;2023-07-09T12:31:39;6.00;;;5.00;;
10509;SDS011;5303;53.266;10.410;2023-07-09T12:34:10;7.97;;;5.18;;
10509;SDS011;5303;53.266;10.410;2023-07-09T12:36:39;6.85;;;5.35;;
10509;SDS011;5303;53.266;10.410;2023-07-09T12:39:09;7.20;;;6.55;;
10509;SDS011;5303;53.266;10.410;2023-07-09T12:41:38;8.15;;;6.38;;
10509;SDS011;5303;53.266;10.410;2023-07-09T12:44:05;5.65;;;4.70;;
10509;SDS011;5303;53.266;10.410;2023-07-09T12:46:33;6.47;;;5.07;;
10509;SDS011;5303;53.266;10.410;2023-07-09T12:48:59;6.70;;;5.70;;
10509;SDS011;5303;53.266;10.410;2023-07-09T12:51:25;7.10;;;5.10;;
10509;SDS011;5303;53.266;10.410;2023-07-09T12:54:01;5.80;;;5.10;;
10509;SDS011;5303;53.266;10.410;2023-07-09T12:56:28;6.55;;;5.45;;
10509;SDS011;5303;53.266;10.410;2023-07-09T12:59:01;7.25;;;4.70;;
10509;SDS011;5303;53.266;10.410;2023-07-09T13:01:32;6.90;;;4.95;;
10509;SDS011;5303;53.266;10.410;2023-07-09T13:04:00;4.93;;;4.53;;
10509;SDS011;5303;53.266;10.410;2023-07-09T13:06:30;6.28;;;4.80;;
10509;SDS011;5303;53.266;10.410;2023-07-09T13:09:00;6.43;;;5.18;;
10509;SDS011;5303;53.266;10.410;2023-07-09T13:11:34;6.45;;;5.05;;
10509;SDS011;5303;53.266;10.410;2023-07-09T13:14:04;4.93;;;4.35;;
10509;SDS011;5303;53.266;10.410;2023-07-09T13:16:37;5.78;;;5.18;;
10509;SDS011;5303;53.266;10.410;2023-07-09T13:19:04;6.15;;;4.70;;
10509;SDS011;5303;53.266;10.410;2023-07-09T13:21:29;5.88;;;5.28;;
10509;SDS011;5303;53.266;10.410;2023-07-09T13:23:55;7.35;;;6.40;;
10509;SDS011;5303;53.266;10.410;2023-07-09T13:26:20;8.05;;;7.25;;
10509;SDS011;5303;53.266;10.410;2023-07-09T13:28:46;6.65;;;5.22;;
10509;SDS011;5303;53.266;10.410;2023-07-09T13:31:16;5.68;;;5.10;;
10509;SDS011;5303;53.266;10.410;2023-07-09T13:33:44;5.55;;;4.95;;
10509;SDS011;5303;53.266;10.410;2023-07-09T13:36:14;4.93;;;4.47;;
10509;SDS011;5303;53.266;10.410;2023-07-09T13:38:39;5.63;;;4.70;;
10509;SDS011;5303;53.266;10.410;2023-07-09T13:41:10;6.45;;;4.65;;
10509;SDS011;5303;53.266;10.410;2023-07-09T13:43:39;5.18;;;4.68;;
10509;SDS011;5303;53.266;10.410;2023-07-09T13:46:08;5.82;;;5.25;;
10509;SDS011;5303;53.266;10.410;2023-07-09T13:48:35;6.63;;;4.70;;
10509;SDS011;5303;53.266;10.410;2023-07-09T13:51:05;5.30;;;4.80;;
10509;SDS011;5303;53.266;10.410;2023-07-09T13:53:38;5.78;;;4.78;;
10509;SDS011;5303;53.266;10.410;2023-07-09T13:56:03;4.95;;;4.45;;
10509;SDS011;5303;53.266;10.410;2023-07-09T13:58:29;6.63;;;5.18;;
10509;SDS011;5303;53.266;10.410;2023-07-09T14:00:55;5.95;;;4.70;;
10509;SDS011;5303;53.266;10.410;2023-07-09T14:03:26;5.22;;;4.72;;
10509;SDS011;5303;53.266;10.410;2023-07-09T14:05:55;11.02;;;8.90;;
10509;SDS011;5303;53.266;10.410;2023-07-09T14:08:20;5.78;;;5.20;;
10509;SDS011;5303;53.266;10.410;2023-07-09T14:10:47;7.78;;;7.03;;
10509;SDS011;5303;53.266;10.410;2023-07-09T14:13:16;6.32;;;5.10;;
10509;SDS011;5303;53.266;10.410;2023-07-09T14:15:44;6.47;;;5.25;;
10509;SDS011;5303;53.266;10.410;2023-07-09T14:18:13;5.78;;;5.15;;
10509;SDS011;5303;53.266;10.410;2023-07-09T14:20:44;5.80;;;5.13;;
10509;SDS011;5303;53.266;10.410;2023-07-09T14:23:13;4.95;;;4.45;;
10509;SDS011;5303;53.266;10.410;2023-07-09T14:25:41;6.95;;;5.05;;
10509;SDS011;5303;53.266;10.410;2023-07-09T14:28:08;5.32;;;4.82;;
10509;SDS011;5303;53.266;10.410;2023-07-09T14:30:36;5.60;;;5.05;;
10509;SDS011;5303;53.266;10.410;2023-07-09T14:33:02;5.75;;;5.10;;
10509;SDS011;5303;53.266;10.410;2023-07-09T14:35:27;6.10;;;5.47;;
10509;SDS011;5303;53.266;10.410;2023-07-09T14:37:54;5.53;;;4.53;;
10509;SDS011;5303;53.266;10.410;2023-07-09T14:40:20;5.93;;;5.05;;
10509;SDS011;5303;53.266;10.410;2023-07-09T14:42:47;7.15;;;4.40;;
10509;SDS011;5303;53.266;10.410;2023-07-09T14:47:47;4.97;;;4.57;;
10509;SDS011;5303;53.266;10.410;2023-07-09T14:50:12;4.97;;;4.57;;
10509;SDS011;5303;53.266;10.410;2023-07-09T14:52:38;6.60;;;4.60;;
10509;SDS011;5303;53.266;10.410;2023-07-09T14:55:07;5.72;;;4.90;;
10509;SDS011;5303;53.266;10.410;2023-07-09T14:57:37;6.30;;;4.70;;
10509;SDS011;5303;53.266;10.410;2023-07-09T15:00:03;6.15;;;4.88;;
10509;SDS011;5303;53.266;10.410;2023-07-09T15:04:59;6.45;;;4.88;;
10509;SDS011;5303;53.266;10.410;2023-07-09T15:07:29;8.75;;;4.50;;
10509;SDS011;5303;53.266;10.410;2023-07-09T15:09:59;5.28;;;4.75;;
10509;SDS011;5303;53.266;10.410;2023-07-09T15:12:28;5.50;;;4.30;;
10509;SDS011;5303;53.266;10.410;2023-07-09T15:15:12;5.75;;;4.47;;
10509;SDS011;5303;53.266;10.410;2023-07-09T15:17:40;7.10;;;4.88;;
10509;SDS011;5303;53.266;10.410;2023-07-09T15:20:07;7.70;;;4.78;;
10509;SDS011;5303;53.266;10.410;2023-07-09T15:22:38;5.65;;;4.57;;
10509;SDS011;5303;53.266;10.410;2023-07-09T15:25:04;7.25;;;4.70;;
10509;SDS011;5303;53.266;10.410;2023-07-09T15:27:36;5.75;;;4.85;;
10509;SDS011;5303;53.266;10.410;2023-07-09T15:30:04;5.43;;;4.57;;
10509;SDS011;5303;53.266;10.410;2023-07-09T15:32:37;5.32;;;4.60;;
10509;SDS011;5303;53.266;10.410;2023-07-09T15:35:02;5.55;;;4.50;;
10509;SDS011;5303;53.266;10.410;2023-07-09T15:37:27;5.82;;;5.00;;
10509;SDS011;5303;53.266;10.410;2023-07-09T15:39:53;7.68;;;4.97;;